»·PEaware :: N235B KSNA-KCRQ

N235B :: KSNA-KCRQ

FLIGHT INFORMATION

Flight Status: Arrived
Operator: Privately registered:
United States
More flights under this callsign
Pilot: Jason D. (29273)
Aircraft: CESSNA 172 SKYHAWK
(C172)
More flights by this aircraft type
Origin: KSNA John Wayne-Orange Co
United States
Destination: KCRQ McClellan-Palomar
United States
More flights between these airports :: More routes between these airports
Route: +V23 OCN
File this flight plan on PilotEdge
Remarks:
Altitude:
(Current/Filed)
5,000ft
Speed:
(Current/Filed)
110kts
Departed: 12-Aug-20 06:32 PM
Arrived: 12-Aug-20 07:15 PM
Distance/Time
Traveled:
44nm/0:43
Distance/Time
To Go:
Arrived

Flight Plot

Page will automatically refresh every two minutes.


Map Options




Map Legend


Flown Route
Filed Route
Departure Airport
Arrival Airport
Navaid (VOR, NDB)
Fix

Horizontal Profiles

Position Reports

Time Latitude Longitude Heading Altitude Ground
Speed
12-Aug-20 18:18 33.676632 -117.870383 66 60ft 0kts
12-Aug-20 18:19 33.676632 -117.870383 66 60ft 0kts
12-Aug-20 18:20 33.676632 -117.870383 66 60ft 0kts
12-Aug-20 18:21 33.676632 -117.870383 66 60ft 0kts
12-Aug-20 18:22 33.676632 -117.870383 66 60ft 0kts
12-Aug-20 18:23 33.676632 -117.870383 66 60ft 0kts
12-Aug-20 18:24 33.676632 -117.870383 66 60ft 0kts
12-Aug-20 18:25 33.676632 -117.870383 66 60ft 0kts
12-Aug-20 18:26 33.676632 -117.870383 66 60ft 0kts
12-Aug-20 18:27 33.678787 -117.868356 28 60ft 24kts
12-Aug-20 18:28 33.681131 -117.866371 119 60ft 0kts
12-Aug-20 18:29 33.681131 -117.866371 119 60ft 0kts
12-Aug-20 18:30 33.680196 -117.866056 201 60ft 25kts
12-Aug-20 18:31 33.666278 -117.871358 184 343ft 48kts
12-Aug-20 18:32 33.653636 -117.872835 183 633ft 50kts
12-Aug-20 18:33 33.639880 -117.874023 186 966ft 49kts
12-Aug-20 18:34 33.626110 -117.875328 186 1295ft 49kts
12-Aug-20 18:35 33.612262 -117.876613 186 1600ft 50kts
12-Aug-20 18:36 33.597946 -117.877978 187 1984ft 52kts
12-Aug-20 18:37 33.583716 -117.879282 187 2521ft 51kts
12-Aug-20 18:38 33.580468 -117.866517 123 3005ft 59kts
12-Aug-20 18:39 33.573542 -117.848974 120 3358ft 59kts
12-Aug-20 18:40 33.569895 -117.829672 123 3751ft 59kts
12-Aug-20 18:41 33.563270 -117.811907 107 4239ft 60kts
12-Aug-20 18:42 33.556128 -117.793694 126 4721ft 60kts
12-Aug-20 18:43 33.546786 -117.774030 126 5005ft 94kts
12-Aug-20 18:44 33.527468 -117.743346 131 4992ft 126kts
12-Aug-20 18:45 33.504992 -117.709881 131 4991ft 130kts
12-Aug-20 18:46 33.481882 -117.676196 135 4990ft 130kts
12-Aug-20 18:47 33.456518 -117.645135 137 4991ft 130kts
12-Aug-20 18:48 33.429985 -117.615871 140 4991ft 130kts
12-Aug-20 18:49 33.403212 -117.586722 140 4991ft 130kts
12-Aug-20 18:50 33.373664 -117.562128 148 4991ft 129kts
12-Aug-20 18:51 33.346936 -117.533541 140 4990ft 130kts
12-Aug-20 18:52 33.319886 -117.504858 140 4990ft 128kts
12-Aug-20 18:53 33.294380 -117.476949 140 4981ft 122kts
12-Aug-20 18:54 33.269409 -117.449532 140 4982ft 121kts
12-Aug-20 18:55 33.244540 -117.422219 140 4984ft 121kts
12-Aug-20 18:56 33.236331 -117.385595 81 4986ft 128kts
12-Aug-20 18:57 33.242940 -117.343506 81 4986ft 129kts
12-Aug-20 18:58 33.249551 -117.301411 81 4987ft 128kts
12-Aug-20 18:59 33.256112 -117.259368 81 4989ft 128kts
12-Aug-20 19:00 33.262165 -117.217113 88 4992ft 128kts
12-Aug-20 19:01 33.265075 -117.174490 87 4985ft 128kts
12-Aug-20 19:02 33.267964 -117.128886 88 4250ft 135kts
12-Aug-20 19:03 33.251960 -117.094515 150 3598ft 100kts
12-Aug-20 19:04 33.230167 -117.077785 151 3608ft 104kts
12-Aug-20 19:05 33.203871 -117.058258 151 3606ft 115kts
12-Aug-20 19:06 33.176896 -117.054724 229 3608ft 109kts
12-Aug-20 19:07 33.158176 -117.082600 231 3513ft 109kts
12-Aug-20 19:08 33.150564 -117.116208 258 3523ft 97kts
12-Aug-20 19:09 33.148497 -117.148087 264 3528ft 101kts
12-Aug-20 19:10 33.144765 -117.181936 257 2897ft 108kts
12-Aug-20 19:11 33.137550 -117.216619 256 1567ft 102kts
12-Aug-20 19:12 33.132505 -117.248701 258 800ft 92kts
12-Aug-20 19:13 33.128768 -117.276091 254 335ft 64kts
12-Aug-20 19:14 33.128993 -117.280279 301 335ft 0kts
12-Aug-20 19:15 33.129152 -117.281764 245 335ft 0kts
12-Aug-20 19:16 33.129152 -117.281764 245 335ft 0kts
12-Aug-20 19:17 33.129152 -117.281764 245 335ft 0kts
12-Aug-20 19:18 33.129152 -117.281764 245 335ft 0kts
12-Aug-20 19:19 33.129152 -117.281764 245 335ft 0kts
12-Aug-20 19:20 33.129152 -117.281764 245 335ft 0kts
12-Aug-20 19:21 33.129152 -117.281764 245 335ft 0kts
12-Aug-20 19:22 33.129152 -117.281764 245 335ft 0kts
12-Aug-20 19:23 33.129152 -117.281764 245 335ft 0kts
12-Aug-20 19:24 33.129152 -117.281764 245 335ft 0kts
12-Aug-20 19:25 33.129152 -117.281764 245 335ft 0kts
12-Aug-20 19:26 33.129152 -117.281764 245 335ft 0kts
12-Aug-20 19:27 33.129152 -117.281764 245 335ft 0kts
12-Aug-20 19:28 33.129152 -117.281764 245 335ft 0kts
12-Aug-20 19:29 33.129152 -117.281764 245 335ft 0kts

Navigation Log

Ident Type
Flight plan parsing failed, navigation log unavailable